Time;durP1;ratioP1;P1;durP2;ratioP2;P2;SDS_P1;SDS_P2;PMS_P1;PMS_P2;Temp;Humidity;BMP_temperature;BMP_pressure;BME280_temperature;BME280_humidity;BME280_pressure;Samples;Min_cycle;Max_cycle;Signal;HPM_P1;HPM_P2
2023/11/22 00:02:02;;;;;;;22.52;10.55;;;7.10;99.90;;;;;;5050723;28;20028;-65
2023/11/22 00:04:27;;;;;;;21.42;11.27;;;7.20;99.90;;;;;;5049538;28;20397;-65
2023/11/22 00:06:53;;;;;;;17.35;9.07;;;7.20;99.90;;;;;;5050477;28;20021;-65
2023/11/22 00:09:22;;;;;;;7.60;4.63;;;7.20;99.90;;;;;;5049820;28;20323;-65
2023/11/22 00:11:48;;;;;;;6.05;3.50;;;7.10;99.90;;;;;;5050311;28;20378;-65
2023/11/22 00:14:14;;;;;;;6.35;3.72;;;6.80;99.90;;;;;;5049834;28;20025;-65
2023/11/22 00:16:40;;;;;;;4.68;3.90;;;6.50;99.90;;;;;;5049877;28;20051;-65
2023/11/22 00:19:06;;;;;;;4.90;3.78;;;6.40;99.90;;;;;;5049980;28;20033;-65
2023/11/22 00:21:32;;;;;;;6.28;4.38;;;6.30;99.90;;;;;;5033785;28;20052;-65
2023/11/22 00:23:58;;;;;;;5.82;4.68;;;6.20;99.90;;;;;;5050513;28;20065;-65
2023/11/22 00:26:23;;;;;;;6.78;4.95;;;6.10;99.90;;;;;;5057110;28;20180;-65
2023/11/22 00:28:49;;;;;;;6.35;4.75;;;6.00;99.90;;;;;;5056429;28;20037;-65
2023/11/22 00:31:15;;;;;;;6.05;4.43;;;5.80;99.90;;;;;;5048590;28;20025;-65
2023/11/22 00:33:41;;;;;;;6.80;4.57;;;5.80;99.90;;;;;;5050553;28;20082;-65
2023/11/22 00:36:08;;;;;;;5.55;4.80;;;5.80;99.90;;;;;;5049265;28;20024;-65
2023/11/22 00:38:36;;;;;;;6.13;4.70;;;5.70;99.90;;;;;;5050029;28;20523;-65
2023/11/22 00:41:02;;;;;;;7.53;5.45;;;5.60;99.90;;;;;;5049998;28;20099;-65
2023/11/22 00:43:27;;;;;;;7.63;5.68;;;5.60;99.90;;;;;;5049689;28;20032;-65
2023/11/22 00:45:53;;;;;;;7.82;5.70;;;5.60;99.90;;;;;;5050305;28;20405;-65
2023/11/22 00:48:19;;;;;;;7.68;6.18;;;5.50;99.90;;;;;;5049605;28;20021;-65
2023/11/22 00:50:44;;;;;;;9.27;6.07;;;5.50;99.90;;;;;;5049810;28;20053;-65
2023/11/22 00:53:10;;;;;;;8.63;6.30;;;5.50;99.90;;;;;;5049663;28;20103;-65
2023/11/22 00:55:35;;;;;;;8.23;6.28;;;5.40;99.90;;;;;;5049899;28;20031;-65
2023/11/22 00:58:04;;;;;;;9.80;5.80;;;5.40;99.90;;;;;;5050201;28;20458;-65
2023/11/22 01:00:30;;;;;;;10.23;6.25;;;5.30;99.90;;;;;;5049645;28;20036;-65
2023/11/22 01:02:56;;;;;;;9.18;7.10;;;5.30;99.90;;;;;;5050416;28;20025;-65
2023/11/22 01:05:22;;;;;;;9.93;7.10;;;5.20;99.90;;;;;;5048872;28;20029;-65
2023/11/22 01:07:48;;;;;;;10.77;7.43;;;5.20;99.90;;;;;;5050473;28;20477;-65
2023/11/22 01:10:15;;;;;;;10.18;6.80;;;5.10;99.90;;;;;;5048907;28;20052;-65
2023/11/22 01:12:41;;;;;;;11.00;7.50;;;5.10;99.90;;;;;;5049970;28;20156;-65
2023/11/22 01:15:07;;;;;;;10.57;7.72;;;5.00;99.90;;;;;;5049213;28;20437;-65
2023/11/22 01:17:34;;;;;;;11.90;7.03;;;5.00;99.90;;;;;;5033556;28;20448;-65
2023/11/22 01:20:00;;;;;;;9.70;6.90;;;5.00;99.90;;;;;;5050124;28;20108;-65
2023/11/22 01:22:25;;;;;;;10.20;7.05;;;5.00;99.90;;;;;;5048644;28;20027;-65
2023/11/22 01:24:51;;;;;;;11.85;7.10;;;4.90;99.90;;;;;;5049892;28;20033;-65
2023/11/22 01:27:17;;;;;;;8.20;6.32;;;4.90;99.90;;;;;;5048841;28;20066;-65
2023/11/22 01:29:42;;;;;;;8.00;6.22;;;4.80;99.90;;;;;;5053199;28;20029;-65
2023/11/22 01:32:08;;;;;;;9.25;6.20;;;4.80;99.90;;;;;;5052237;28;20091;-65
2023/11/22 01:34:35;;;;;;;11.05;6.07;;;4.80;99.90;;;;;;5053426;28;20029;-65
2023/11/22 01:37:00;;;;;;;7.85;6.30;;;4.70;99.90;;;;;;5052939;28;20017;-66
2023/11/22 01:39:28;;;;;;;8.40;6.22;;;4.60;99.90;;;;;;5034711;28;20128;-65
2023/11/22 01:41:54;;;;;;;8.85;6.25;;;4.50;99.90;;;;;;5053221;28;20025;-65
2023/11/22 01:44:20;;;;;;;9.68;6.63;;;4.60;99.90;;;;;;5052026;28;20031;-65
2023/11/22 01:46:46;;;;;;;8.38;6.18;;;4.50;99.90;;;;;;5052679;28;20434;-65
2023/11/22 01:49:12;;;;;;;8.95;5.70;;;4.60;99.90;;;;;;5052352;28;20104;-65
2023/11/22 01:51:39;;;;;;;7.55;5.50;;;4.60;99.90;;;;;;5052625;28;20108;-65
2023/11/22 01:54:08;;;;;;;8.82;6.20;;;4.50;99.90;;;;;;5052875;28;20079;-65
2023/11/22 01:56:37;;;;;;;9.05;6.18;;;4.40;99.90;;;;;;5054190;28;20458;-65
2023/11/22 01:59:04;;;;;;;7.13;4.80;;;4.50;99.90;;;;;;5056669;28;20482;-65
2023/11/22 02:01:30;;;;;;;5.97;4.93;;;4.50;99.90;;;;;;5052329;28;20024;-65
2023/11/22 02:03:56;;;;;;;8.55;5.45;;;4.40;99.90;;;;;;5053058;28;20046;-65
2023/11/22 02:06:22;;;;;;;7.70;4.78;;;4.40;99.90;;;;;;5051829;28;20266;-65
2023/11/22 02:08:48;;;;;;;6.05;4.57;;;4.40;99.90;;;;;;5053182;28;20028;-65
2023/11/22 02:11:21;;;;;;;6.32;4.38;;;4.30;99.90;;;;;;5051400;28;20025;-65
2023/11/22 02:13:50;;;;;;;6.57;4.68;;;4.30;99.90;;;;;;5053303;28;20106;-65
2023/11/22 02:16:17;;;;;;;6.55;4.40;;;4.20;99.90;;;;;;5050914;28;20025;-65
2023/11/22 02:18:47;;;;;;;6.00;4.53;;;4.20;99.90;;;;;;5052977;28;20025;-65
2023/11/22 02:21:12;;;;;;;4.72;3.75;;;4.20;99.90;;;;;;5050765;28;20024;-66
2023/11/22 02:23:38;;;;;;;7.18;4.88;;;4.10;99.90;;;;;;5052886;28;20390;-65
2023/11/22 02:26:04;;;;;;;7.53;4.85;;;4.10;99.90;;;;;;5051453;28;20064;-65
2023/11/22 02:28:30;;;;;;;6.25;4.75;;;4.00;99.90;;;;;;5052508;28;20053;-64
2023/11/22 02:30:55;;;;;;;8.63;5.10;;;4.00;99.90;;;;;;5051910;28;20462;-65
2023/11/22 02:33:21;;;;;;;7.45;4.95;;;3.90;99.90;;;;;;5033690;28;20037;-65
2023/11/22 02:35:46;;;;;;;6.53;4.65;;;3.90;99.90;;;;;;5051337;28;20485;-65
2023/11/22 02:38:12;;;;;;;5.25;4.38;;;4.00;99.90;;;;;;5051072;28;20025;-65
2023/11/22 02:40:38;;;;;;;6.22;4.43;;;4.00;99.90;;;;;;5051622;28;20036;-65
2023/11/22 02:43:08;;;;;;;5.43;4.15;;;3.90;99.90;;;;;;5051940;28;20037;-65
2023/11/22 02:45:34;;;;;;;7.15;4.00;;;3.90;99.90;;;;;;5051715;28;20100;-64
2023/11/22 02:48:01;;;;;;;5.70;4.20;;;3.90;99.90;;;;;;5052280;28;20159;-65
2023/11/22 02:50:27;;;;;;;5.55;3.92;;;3.80;99.90;;;;;;5050945;28;20098;-65
2023/11/22 02:52:53;;;;;;;6.25;4.43;;;3.90;99.90;;;;;;5052494;28;20037;-65
2023/11/22 02:55:19;;;;;;;6.28;4.10;;;3.90;99.90;;;;;;5050335;28;20032;-65
2023/11/22 02:57:45;;;;;;;7.65;4.40;;;3.90;99.90;;;;;;5058171;28;20086;-66
2023/11/22 03:00:14;;;;;;;5.88;3.97;;;3.80;99.90;;;;;;5050939;28;20025;-64
2023/11/22 03:02:45;;;;;;;8.98;4.88;;;3.80;99.90;;;;;;5052095;28;20025;-65
2023/11/22 03:05:10;;;;;;;6.30;4.30;;;3.70;99.90;;;;;;5050511;28;20032;-65
2023/11/22 03:07:37;;;;;;;7.32;4.60;;;3.70;99.90;;;;;;5052105;28;20021;-65
2023/11/22 03:10:03;;;;;;;5.57;4.22;;;3.50;99.90;;;;;;5051811;28;20037;-65
2023/11/22 03:12:29;;;;;;;8.30;4.85;;;3.50;99.90;;;;;;5050550;28;20035;-64
2023/11/22 03:14:58;;;;;;;7.30;4.75;;;3.50;99.90;;;;;;5051789;28;20107;-65
2023/11/22 03:17:24;;;;;;;5.55;4.45;;;3.50;99.90;;;;;;5049995;28;20049;-64
2023/11/22 03:19:50;;;;;;;5.88;4.03;;;3.50;99.90;;;;;;5051715;28;20039;-64
2023/11/22 03:22:15;;;;;;;7.25;4.50;;;3.40;99.90;;;;;;5050129;28;20025;-63
2023/11/22 03:24:41;;;;;;;6.72;4.55;;;3.30;99.90;;;;;;5051344;28;20037;-63
2023/11/22 03:27:06;;;;;;;5.60;4.25;;;3.40;99.90;;;;;;5046443;28;20470;-66
2023/11/22 03:29:33;;;;;;;5.85;3.90;;;3.30;99.90;;;;;;5041246;28;20053;-63
2023/11/22 03:31:59;;;;;;;7.35;4.78;;;3.30;99.90;;;;;;5050442;28;20033;-63
2023/11/22 03:34:24;;;;;;;8.88;4.50;;;3.30;99.90;;;;;;5050463;28;20511;-64
2023/11/22 03:36:50;;;;;;;7.65;4.97;;;3.30;99.90;;;;;;5050979;28;20029;-63
2023/11/22 03:39:16;;;;;;;5.95;4.18;;;3.30;99.90;;;;;;5050100;28;20056;-63
2023/11/22 03:41:42;;;;;;;8.55;4.35;;;3.30;99.90;;;;;;5050845;28;20017;-63
2023/11/22 03:44:11;;;;;;;5.85;4.22;;;3.20;99.90;;;;;;5050389;28;20036;-64
2023/11/22 03:46:38;;;;;;;7.30;4.38;;;3.30;99.90;;;;;;5050307;28;20028;-64
2023/11/22 03:49:06;;;;;;;6.63;4.95;;;3.20;99.90;;;;;;5050841;28;20071;-64
2023/11/22 03:51:33;;;;;;;6.20;4.70;;;3.20;99.90;;;;;;5049714;28;20025;-64
2023/11/22 03:53:59;;;;;;;6.00;4.70;;;3.20;99.90;;;;;;5051161;28;20025;-63
2023/11/22 03:56:25;;;;;;;8.10;4.82;;;3.20;99.90;;;;;;5031734;28;20028;-64
2023/11/22 03:58:50;;;;;;;10.18;4.68;;;3.20;99.90;;;;;;5056588;28;20500;-63
2023/11/22 04:01:16;;;;;;;5.45;4.57;;;3.20;99.90;;;;;;5049289;28;20112;-63
2023/11/22 04:03:42;;;;;;;7.97;5.32;;;3.20;99.90;;;;;;5050765;28;20068;-63
2023/11/22 04:06:08;;;;;;;7.07;4.88;;;3.30;99.90;;;;;;5031714;28;20036;-63
2023/11/22 04:08:33;;;;;;;6.78;4.45;;;3.30;99.90;;;;;;5050423;28;20486;-65
2023/11/22 04:10:59;;;;;;;6.78;5.10;;;3.30;99.90;;;;;;5049922;28;20036;-63
2023/11/22 04:13:24;;;;;;;5.65;4.43;;;3.30;99.90;;;;;;5049985;28;20033;-64
2023/11/22 04:15:51;;;;;;;6.95;5.07;;;3.30;99.90;;;;;;5049846;28;20025;-64
2023/11/22 04:18:16;;;;;;;10.13;4.85;;;3.20;99.90;;;;;;5049277;28;20064;-63
2023/11/22 04:20:42;;;;;;;7.03;5.10;;;3.30;99.90;;;;;;5049750;28;20076;-63
2023/11/22 04:23:10;;;;;;;6.50;4.88;;;3.30;99.90;;;;;;5050179;28;20029;-63
2023/11/22 04:25:37;;;;;;;8.25;5.20;;;3.30;99.90;;;;;;5049850;28;20028;-63
2023/11/22 04:28:03;;;;;;;6.82;4.75;;;3.40;99.90;;;;;;5050620;28;20553;-63
2023/11/22 04:30:28;;;;;;;6.93;5.03;;;3.40;99.90;;;;;;5050028;28;20104;-64
2023/11/22 04:32:54;;;;;;;7.85;5.53;;;3.40;99.90;;;;;;5050229;28;20040;-64
2023/11/22 04:35:20;;;;;;;7.55;4.88;;;3.40;99.90;;;;;;5049271;28;20079;-64
2023/11/22 04:37:46;;;;;;;8.10;5.18;;;3.40;99.90;;;;;;5050608;28;20029;-63
2023/11/22 04:40:14;;;;;;;8.85;5.22;;;3.40;99.90;;;;;;5049544;28;20037;-63
2023/11/22 04:42:40;;;;;;;11.10;6.30;;;3.30;99.90;;;;;;5050720;28;20033;-63
2023/11/22 04:45:06;;;;;;;7.82;5.40;;;3.30;99.90;;;;;;5050144;28;20079;-64
2023/11/22 04:47:32;;;;;;;7.82;5.10;;;3.30;99.90;;;;;;5050176;28;20032;-64
2023/11/22 04:49:58;;;;;;;8.63;5.65;;;3.40;99.90;;;;;;5050974;28;20103;-63
2023/11/22 04:52:23;;;;;;;9.57;5.28;;;3.30;99.90;;;;;;5049356;28;20581;-64
2023/11/22 04:54:49;;;;;;;7.80;5.60;;;3.40;99.90;;;;;;5050791;28;20021;-63
2023/11/22 04:57:15;;;;;;;9.02;5.88;;;3.40;99.90;;;;;;5049057;28;20458;-63
2023/11/22 04:59:41;;;;;;;8.23;5.63;;;3.40;99.90;;;;;;5050795;28;20028;-64
2023/11/22 05:02:07;;;;;;;9.75;5.38;;;3.40;99.90;;;;;;5051233;28;20033;-64
2023/11/22 05:04:32;;;;;;;9.00;5.47;;;3.30;99.90;;;;;;5054586;28;20088;-64
2023/11/22 05:06:58;;;;;;;7.90;4.90;;;3.40;99.90;;;;;;5054116;28;20030;-64
2023/11/22 05:09:24;;;;;;;7.50;4.90;;;3.30;99.90;;;;;;5053795;28;20100;-64
2023/11/22 05:11:49;;;;;;;8.98;5.22;;;3.40;99.90;;;;;;5053830;28;20099;-64
2023/11/22 05:14:15;;;;;;;9.75;5.05;;;3.40;99.90;;;;;;5053409;28;20031;-64
2023/11/22 05:16:41;;;;;;;7.88;5.15;;;3.40;99.90;;;;;;5053207;28;20052;-64
2023/11/22 05:19:06;;;;;;;6.78;4.70;;;3.30;99.90;;;;;;5053870;28;20075;-64
2023/11/22 05:21:32;;;;;;;5.78;4.10;;;3.40;99.90;;;;;;5053733;28;20049;-65
2023/11/22 05:23:58;;;;;;;4.18;3.28;;;3.30;99.90;;;;;;5053989;28;20124;-64
2023/11/22 05:26:24;;;;;;;6.32;4.50;;;3.40;99.90;;;;;;5052545;28;20029;-64
2023/11/22 05:28:50;;;;;;;7.63;5.32;;;3.40;99.90;;;;;;5054149;28;20088;-64
2023/11/22 05:31:16;;;;;;;7.90;5.05;;;3.40;99.90;;;;;;5052283;28;20057;-64
2023/11/22 05:33:42;;;;;;;8.00;5.47;;;3.40;99.90;;;;;;5053975;28;20056;-64
2023/11/22 05:36:08;;;;;;;6.32;4.45;;;3.30;99.90;;;;;;5052889;28;20017;-64
2023/11/22 05:38:34;;;;;;;10.55;4.88;;;3.40;99.90;;;;;;5053859;28;20037;-66
2023/11/22 05:41:00;;;;;;;5.65;4.47;;;3.40;99.90;;;;;;5053515;28;20425;-64
2023/11/22 05:43:26;;;;;;;7.15;5.05;;;3.40;99.90;;;;;;5052942;28;20082;-65
2023/11/22 05:45:53;;;;;;;6.95;4.60;;;3.30;99.90;;;;;;5053123;28;20417;-64
2023/11/22 05:48:21;;;;;;;9.23;4.28;;;3.30;99.90;;;;;;5052879;28;20063;-64
2023/11/22 05:50:48;;;;;;;6.55;4.38;;;3.30;99.90;;;;;;5053309;28;20029;-64
2023/11/22 05:53:19;;;;;;;8.10;4.95;;;3.40;99.90;;;;;;5052588;28;20065;-65
2023/11/22 05:55:47;;;;;;;7.85;4.82;;;3.20;99.90;;;;;;5053252;28;20017;-65
2023/11/22 05:58:16;;;;;;;8.55;4.65;;;3.20;99.90;;;;;;5052394;28;20123;-64
2023/11/22 06:00:42;;;;;;;5.47;4.03;;;3.20;99.90;;;;;;5053139;28;20044;-64
2023/11/22 06:03:08;;;;;;;6.35;4.13;;;3.20;99.90;;;;;;5052062;28;20033;-65
2023/11/22 06:05:34;;;;;;;7.53;3.88;;;3.20;99.90;;;;;;5052671;28;20362;-63
2023/11/22 06:07:59;;;;;;;6.07;4.28;;;3.20;99.90;;;;;;5053627;28;20025;-65
2023/11/22 06:10:25;;;;;;;6.97;4.53;;;3.20;99.90;;;;;;5052254;28;20644;-66
2023/11/22 06:12:50;;;;;;;5.90;3.72;;;3.20;99.90;;;;;;5034745;28;20031;-65
2023/11/22 06:15:18;;;;;;;7.40;4.57;;;3.10;99.90;;;;;;5051573;28;20374;-64
2023/11/22 06:17:44;;;;;;;6.40;4.60;;;3.10;99.90;;;;;;5052186;28;20513;-66
2023/11/22 06:20:11;;;;;;;7.72;4.65;;;3.10;99.90;;;;;;5051932;28;20096;-67
2023/11/22 06:22:40;;;;;;;6.03;4.22;;;3.10;99.90;;;;;;5052959;28;20114;-65
2023/11/22 06:25:10;;;;;;;5.38;3.90;;;3.10;99.90;;;;;;5055586;28;20033;-65
2023/11/22 06:27:36;;;;;;;5.88;3.97;;;3.10;99.90;;;;;;5062340;28;20041;-67
2023/11/22 06:30:03;;;;;;;9.55;3.90;;;3.10;99.90;;;;;;5053133;28;20071;-68
2023/11/22 06:32:28;;;;;;;4.70;3.65;;;3.20;99.90;;;;;;5051357;28;20040;-66
2023/11/22 06:34:54;;;;;;;7.05;4.15;;;3.20;99.90;;;;;;5052937;28;20461;-66
2023/11/22 06:37:20;;;;;;;6.47;4.32;;;3.20;99.90;;;;;;5051405;28;20044;-67
2023/11/22 06:39:46;;;;;;;6.07;3.95;;;3.20;99.90;;;;;;5052992;28;20181;-65
2023/11/22 06:42:13;;;;;;;5.13;3.70;;;3.10;99.90;;;;;;5045152;28;20143;-65
2023/11/22 06:44:39;;;;;;;6.40;4.00;;;3.10;99.90;;;;;;5051284;28;20512;-66
2023/11/22 06:47:07;;;;;;;5.55;3.38;;;3.10;99.90;;;;;;5051011;28;20486;-67
2023/11/22 06:49:33;;;;;;;5.55;4.15;;;3.20;99.90;;;;;;5049313;28;20033;-67
2023/11/22 06:51:58;;;;;;;5.50;3.58;;;3.10;99.90;;;;;;5057339;28;20478;-66
2023/11/22 06:54:24;;;;;;;6.63;3.50;;;3.10;99.90;;;;;;5059832;28;20182;-65
2023/11/22 06:56:51;;;;;;;7.80;3.55;;;3.00;99.90;;;;;;5049826;28;20033;-65
2023/11/22 06:59:17;;;;;;;5.63;3.85;;;3.10;99.90;;;;;;5050895;28;20040;-72
2023/11/22 07:01:42;;;;;;;6.45;4.13;;;3.10;99.90;;;;;;5051269;28;20064;-66
2023/11/22 07:04:08;;;;;;;8.02;4.75;;;3.10;99.90;;;;;;5051115;28;20056;-65
2023/11/22 07:06:36;;;;;;;5.50;3.17;;;3.10;99.90;;;;;;5054404;28;20074;-65
2023/11/22 07:09:01;;;;;;;5.70;3.42;;;3.10;99.90;;;;;;5057259;28;20078;-65
2023/11/22 07:11:30;;;;;;;4.60;3.10;;;3.00;99.90;;;;;;5051023;28;20041;-66
2023/11/22 07:13:57;;;;;;;4.88;3.20;;;2.90;99.90;;;;;;5062881;28;20029;-66
2023/11/22 07:16:24;;;;;;;14.30;3.85;;;2.90;99.90;;;;;;5062999;28;20249;-65
2023/11/22 07:18:50;;;;;;;7.13;3.38;;;2.90;99.90;;;;;;5057535;28;20033;-66
2023/11/22 07:21:20;;;;;;;5.85;3.33;;;2.90;99.90;;;;;;5051242;28;20025;-66
2023/11/22 07:23:46;;;;;;;6.07;3.33;;;2.80;99.90;;;;;;5046020;28;20037;-66
2023/11/22 07:26:14;;;;;;;6.57;3.15;;;2.80;99.90;;;;;;5049779;28;20104;-66
2023/11/22 07:28:40;;;;;;;5.80;3.53;;;2.80;99.90;;;;;;5051673;28;20043;-66
2023/11/22 07:31:07;;;;;;;5.53;3.55;;;2.80;99.90;;;;;;5044615;28;20037;-66
2023/11/22 07:33:33;;;;;;;6.40;3.53;;;2.70;99.90;;;;;;5060070;28;20032;-65
2023/11/22 07:35:59;;;;;;;7.35;3.63;;;2.70;99.90;;;;;;5064248;28;20366;-66
2023/11/22 07:38:25;;;;;;;5.88;3.40;;;2.80;99.90;;;;;;5048077;28;20747;-66
2023/11/22 07:40:51;;;;;;;6.90;3.65;;;2.70;99.90;;;;;;5053631;28;20024;-66
2023/11/22 07:43:17;;;;;;;6.78;3.40;;;2.70;99.90;;;;;;5062235;28;20552;-66
2023/11/22 07:45:43;;;;;;;5.35;3.10;;;2.70;99.90;;;;;;5046847;28;20036;-66
2023/11/22 07:48:11;;;;;;;6.90;3.90;;;2.70;99.90;;;;;;5051000;28;20025;-66
2023/11/22 07:50:39;;;;;;;5.93;3.42;;;2.70;99.90;;;;;;5051090;28;20033;-66
2023/11/22 07:53:05;;;;;;;5.30;3.08;;;2.80;99.90;;;;;;5047797;28;20037;-66
2023/11/22 07:55:31;;;;;;;7.20;3.13;;;2.70;99.90;;;;;;5050671;28;20481;-66
2023/11/22 07:57:56;;;;;;;5.97;3.35;;;2.70;99.90;;;;;;5054984;28;20028;-66
2023/11/22 08:00:23;;;;;;;6.40;4.07;;;2.70;99.90;;;;;;5044761;28;20241;-66
2023/11/22 08:02:49;;;;;;;15.80;3.85;;;2.70;99.90;;;;;;5051280;28;20120;-66
2023/11/22 08:05:15;;;;;;;3.63;2.58;;;2.70;99.90;;;;;;5050417;28;20032;-66
2023/11/22 08:07:44;;;;;;;3.50;2.83;;;2.70;99.90;;;;;;5051530;28;20468;-66
2023/11/22 08:10:17;;;;;;;4.20;3.00;;;2.70;99.90;;;;;;5050011;28;20363;-66
2023/11/22 08:12:44;;;;;;;3.50;2.80;;;2.60;99.90;;;;;;5051042;28;20036;-66
2023/11/22 08:15:12;;;;;;;8.02;3.45;;;2.60;99.90;;;;;;5049839;28;20087;-66
2023/11/22 08:17:41;;;;;;;5.82;3.13;;;2.60;99.90;;;;;;5050591;28;20057;-67
2023/11/22 08:20:11;;;;;;;4.95;3.20;;;2.60;99.90;;;;;;5049955;28;20033;-65
2023/11/22 08:22:38;;;;;;;7.35;3.50;;;2.60;99.90;;;;;;5050628;28;20029;-66
2023/11/22 08:25:05;;;;;;;5.97;3.30;;;2.50;99.90;;;;;;5050339;28;20689;-66
2023/11/22 08:27:31;;;;;;;6.35;3.55;;;2.50;99.90;;;;;;5050389;28;20387;-65
2023/11/22 08:29:58;;;;;;;8.75;4.00;;;2.50;99.90;;;;;;5050782;28;20025;-66
2023/11/22 08:32:27;;;;;;;5.95;3.42;;;2.50;99.90;;;;;;5049519;28;20071;-67
2023/11/22 08:34:53;;;;;;;5.28;3.20;;;2.50;99.90;;;;;;5050425;28;20434;-66
2023/11/22 08:37:18;;;;;;;5.20;3.55;;;2.40;99.90;;;;;;5050058;28;20211;-65
2023/11/22 08:39:44;;;;;;;4.93;3.25;;;2.40;99.90;;;;;;5050763;28;20040;-65
2023/11/22 08:42:10;;;;;;;6.72;4.18;;;2.30;99.90;;;;;;5032163;28;20025;-65
2023/11/22 08:44:36;;;;;;;5.32;3.42;;;2.30;99.90;;;;;;5053359;28;20062;-66
2023/11/22 08:47:03;;;;;;;5.43;3.83;;;2.40;99.90;;;;;;5065453;28;20394;-66
2023/11/22 08:49:29;;;;;;;9.35;3.83;;;2.40;99.90;;;;;;5049787;28;20041;-66
2023/11/22 08:51:55;;;;;;;7.68;3.83;;;2.50;99.90;;;;;;5049644;28;20033;-66
2023/11/22 08:54:21;;;;;;;5.53;3.55;;;2.40;99.90;;;;;;5049391;28;20167;-65
2023/11/22 08:56:47;;;;;;;5.55;3.30;;;2.50;99.90;;;;;;5049865;28;20100;-66
2023/11/22 08:59:13;;;;;;;6.75;4.10;;;2.50;99.90;;;;;;5050180;28;20036;-66
2023/11/22 09:01:38;;;;;;;5.05;3.63;;;2.40;99.90;;;;;;5050028;28;20096;-65
2023/11/22 09:04:04;;;;;;;7.03;3.65;;;2.50;99.90;;;;;;5049903;28;20056;-65
2023/11/22 09:06:31;;;;;;;12.00;4.75;;;2.50;99.90;;;;;;5049515;28;20033;-65
2023/11/22 09:08:56;;;;;;;8.75;4.45;;;2.50;99.90;;;;;;5050155;28;20025;-65
2023/11/22 09:11:22;;;;;;;10.23;3.92;;;2.40;99.90;;;;;;5049185;28;20819;-65
2023/11/22 09:13:50;;;;;;;9.38;4.10;;;2.50;99.90;;;;;;5050170;28;20087;-65
2023/11/22 09:16:16;;;;;;;6.07;3.72;;;2.50;99.90;;;;;;5043581;28;20035;-65
2023/11/22 09:18:42;;;;;;;5.90;3.85;;;2.60;99.90;;;;;;5050220;28;20103;-66
2023/11/22 09:21:09;;;;;;;7.90;4.05;;;2.50;99.90;;;;;;5048525;28;20095;-65
2023/11/22 09:23:36;;;;;;;8.10;3.60;;;2.60;99.90;;;;;;5052467;28;20090;-65
2023/11/22 09:26:02;;;;;;;6.95;3.67;;;2.60;99.90;;;;;;5065893;28;20029;-65
2023/11/22 09:28:28;;;;;;;7.47;3.85;;;2.60;99.90;;;;;;5061274;28;20035;-65
2023/11/22 09:31:01;;;;;;;8.25;4.68;;;2.70;99.90;;;;;;5055816;28;20033;-65
2023/11/22 09:33:27;;;;;;;8.45;4.05;;;2.80;99.90;;;;;;5049595;28;20049;-65
2023/11/22 09:35:52;;;;;;;5.97;3.47;;;2.80;99.90;;;;;;5051446;28;20073;-65
2023/11/22 09:38:18;;;;;;;5.50;3.95;;;2.80;99.90;;;;;;5054231;28;20033;-65
2023/11/22 09:40:45;;;;;;;7.55;4.40;;;2.80;99.90;;;;;;5049256;28;20028;-65
2023/11/22 09:43:12;;;;;;;7.97;4.38;;;2.90;99.90;;;;;;5046039;28;20036;-65
2023/11/22 09:45:38;;;;;;;8.93;4.50;;;2.90;99.90;;;;;;5041717;28;20391;-66
2023/11/22 09:48:15;;;;;;;6.75;3.80;;;2.80;99.90;;;;;;5062064;28;20106;-65
2023/11/22 09:50:50;;;;;;;6.90;4.30;;;2.90;99.90;;;;;;5048210;28;20096;-65
2023/11/22 09:53:26;;;;;;;9.57;4.28;;;3.00;99.90;;;;;;5056916;28;20056;-65
2023/11/22 09:55:52;;;;;;;6.85;4.63;;;2.90;99.90;;;;;;5057280;28;20017;-66
2023/11/22 09:58:19;;;;;;;6.97;4.40;;;2.90;99.90;;;;;;5052240;28;20625;-65
2023/11/22 10:00:47;;;;;;;10.10;4.28;;;3.00;99.90;;;;;;5052527;28;20033;-65
2023/11/22 10:03:14;;;;;;;8.57;4.82;;;3.00;99.90;;;;;;5046559;28;20037;-66
2023/11/22 10:05:43;;;;;;;6.63;4.55;;;3.00;99.90;;;;;;5052376;28;20064;-66
2023/11/22 10:08:09;;;;;;;7.60;4.43;;;3.00;99.90;;;;;;5052446;28;20052;-65
2023/11/22 10:10:36;;;;;;;7.03;4.60;;;3.00;99.90;;;;;;5052568;28;20488;-65
2023/11/22 10:13:03;;;;;;;8.52;4.55;;;3.00;99.90;;;;;;5053219;28;20037;-65
2023/11/22 10:15:29;;;;;;;7.40;4.28;;;3.10;99.90;;;;;;5054295;28;20120;-65
2023/11/22 10:17:56;;;;;;;8.73;4.88;;;3.00;99.90;;;;;;5064620;28;20060;-65
2023/11/22 10:20:46;;;;;;;8.63;4.22;;;3.00;99.90;;;;;;5049815;28;20033;-65
2023/11/22 10:23:16;;;;;;;12.70;4.60;;;2.90;99.90;;;;;;5040033;28;20034;-65
2023/11/22 10:25:49;;;;;;;8.40;4.93;;;3.00;99.90;;;;;;5046465;28;20052;-65
2023/11/22 10:28:26;;;;;;;9.38;5.25;;;3.00;99.90;;;;;;5067116;28;20028;-67
2023/11/22 10:30:51;;;;;;;8.98;4.70;;;3.00;99.90;;;;;;5052353;28;20036;-67
2023/11/22 10:33:19;;;;;;;9.57;5.55;;;3.00;99.90;;;;;;5051004;28;20037;-67
2023/11/22 10:35:51;;;;;;;10.30;5.55;;;3.00;99.90;;;;;;5051740;28;20036;-66
2023/11/22 10:38:18;;;;;;;7.35;4.97;;;3.00;99.90;;;;;;5041171;28;20034;-65
2023/11/22 10:40:44;;;;;;;6.78;4.88;;;3.00;99.90;;;;;;5060437;28;20040;-65
2023/11/22 10:43:11;;;;;;;9.07;5.40;;;3.10;99.90;;;;;;5051825;28;20036;-65
2023/11/22 10:45:38;;;;;;;7.80;5.28;;;3.20;99.90;;;;;;5050420;28;20086;-65
2023/11/22 10:48:05;;;;;;;11.75;5.75;;;3.20;99.90;;;;;;5062596;28;20048;-65
2023/11/22 10:50:31;;;;;;;10.18;5.80;;;3.30;99.90;;;;;;5052383;28;20458;-65
2023/11/22 10:53:00;;;;;;;10.90;5.30;;;3.30;99.90;;;;;;5064495;28;20219;-65
2023/11/22 10:55:32;;;;;;;9.23;5.45;;;3.30;99.90;;;;;;5050942;28;20581;-65
2023/11/22 10:58:02;;;;;;;9.20;5.18;;;3.30;99.90;;;;;;5065284;28;20055;-66
2023/11/22 11:00:32;;;;;;;7.82;5.63;;;3.30;99.90;;;;;;5056173;28;20132;-65
2023/11/22 11:03:09;;;;;;;7.90;5.20;;;3.40;99.90;;;;;;5056178;28;20035;-65
2023/11/22 11:05:38;;;;;;;9.07;5.70;;;3.40;99.90;;;;;;5057877;28;20041;-65
2023/11/22 11:08:12;;;;;;;9.65;5.38;;;3.50;99.90;;;;;;5050397;28;20017;-65
2023/11/22 11:10:42;;;;;;;9.43;5.40;;;3.60;99.90;;;;;;5051431;28;20037;-64
2023/11/22 11:13:11;;;;;;;9.80;5.30;;;3.70;99.90;;;;;;5051587;28;20061;-65
2023/11/22 11:15:39;;;;;;;11.13;5.50;;;3.70;99.90;;;;;;5044481;28;20121;-65
2023/11/22 11:18:12;;;;;;;7.80;5.30;;;3.60;99.90;;;;;;5048162;28;20056;-65
2023/11/22 11:20:59;;;;;;;8.95;5.63;;;3.60;99.90;;;;;;5051029;28;20036;-65
2023/11/22 11:23:26;;;;;;;8.75;5.20;;;3.60;99.90;;;;;;5034605;28;20523;-65
2023/11/22 11:25:56;;;;;;;7.93;5.75;;;3.60;99.90;;;;;;5050853;28;20170;-65
2023/11/22 11:28:26;;;;;;;9.05;5.60;;;3.60;99.90;;;;;;5051048;28;20029;-65
2023/11/22 11:30:53;;;;;;;8.77;5.90;;;3.50;99.90;;;;;;5050714;28;20040;-65
2023/11/22 11:33:53;;;;;;;10.07;4.88;;;3.50;99.90;;;;;;5051056;28;20033;-66
2023/11/22 11:36:31;;;;;;;9.48;5.43;;;3.50;99.90;;;;;;5049471;28;20099;-65
2023/11/22 11:39:14;;;;;;;10.52;6.15;;;3.40;99.90;;;;;;5050283;28;20037;-65
2023/11/22 11:41:41;;;;;;;9.15;5.80;;;3.40;99.90;;;;;;5050854;28;20532;-65
2023/11/22 11:44:11;;;;;;;9.82;5.65;;;3.40;99.90;;;;;;5050853;28;20033;-65
2023/11/22 11:46:38;;;;;;;7.55;5.68;;;3.40;99.90;;;;;;5050654;28;20040;-66
2023/11/22 11:49:09;;;;;;;7.70;5.25;;;3.40;99.90;;;;;;5051057;28;20448;-66
2023/11/22 11:51:36;;;;;;;9.32;6.03;;;3.40;99.90;;;;;;5053932;28;20477;-65
2023/11/22 11:54:01;;;;;;;10.82;6.13;;;3.30;99.90;;;;;;5054290;28;20037;-66
2023/11/22 11:56:29;;;;;;;10.18;6.20;;;3.40;99.90;;;;;;5049210;28;20086;-65
2023/11/22 11:58:59;;;;;;;8.40;5.55;;;3.30;99.90;;;;;;5051343;28;20087;-66
2023/11/22 12:01:29;;;;;;;11.40;6.32;;;3.20;99.90;;;;;;5049945;28;20547;-66
2023/11/22 12:03:55;;;;;;;10.23;6.03;;;3.20;99.90;;;;;;5051251;28;20128;-66
2023/11/22 12:06:21;;;;;;;9.23;5.57;;;3.20;99.90;;;;;;5049408;28;20041;-66
2023/11/22 12:08:47;;;;;;;8.23;5.88;;;3.20;99.90;;;;;;5050943;28;20061;-65
2023/11/22 12:11:15;;;;;;;9.82;6.13;;;3.20;99.90;;;;;;5049083;28;20035;-65
2023/11/22 12:13:46;;;;;;;10.40;5.70;;;3.20;99.90;;;;;;5051205;28;20069;-67
2023/11/22 12:16:14;;;;;;;9.52;5.45;;;3.20;99.90;;;;;;5048349;28;20104;-65
2023/11/22 12:18:43;;;;;;;10.23;6.45;;;3.30;99.90;;;;;;5050835;28;20021;-65
2023/11/22 12:21:15;;;;;;;8.52;5.38;;;3.30;99.90;;;;;;5051880;28;20021;-65
2023/11/22 12:23:42;;;;;;;9.98;5.32;;;3.30;99.90;;;;;;5050488;28;20039;-65
2023/11/22 12:26:13;;;;;;;9.52;6.20;;;3.30;99.90;;;;;;5054058;28;20024;-65
2023/11/22 12:28:40;;;;;;;8.38;5.68;;;3.30;99.90;;;;;;5065180;28;20029;-65
2023/11/22 12:31:10;;;;;;;9.15;5.63;;;3.30;99.90;;;;;;5049225;28;20390;-66
2023/11/22 12:33:36;;;;;;;9.70;5.85;;;3.30;99.90;;;;;;5043817;28;20029;-66
2023/11/22 12:36:06;;;;;;;11.32;5.78;;;3.20;99.90;;;;;;5049915;28;20037;-65
2023/11/22 12:38:32;;;;;;;10.90;6.65;;;3.20;99.90;;;;;;5053141;28;20421;-65
2023/11/22 12:40:58;;;;;;;7.75;5.68;;;3.20;99.90;;;;;;5061806;28;20021;-65
2023/11/22 12:43:27;;;;;;;8.15;5.43;;;3.20;99.90;;;;;;5049517;28;20677;-66
2023/11/22 12:46:16;;;;;;;9.43;5.65;;;3.20;99.90;;;;;;5049210;28;20401;-66
2023/11/22 12:48:42;;;;;;;8.13;5.10;;;3.20;99.90;;;;;;5063040;28;20444;-66
2023/11/22 12:51:18;;;;;;;14.30;5.78;;;3.20;99.90;;;;;;5048976;28;20028;-66
2023/11/22 12:53:46;;;;;;;9.45;5.45;;;3.20;99.90;;;;;;5047316;28;20037;-65
2023/11/22 12:56:12;;;;;;;9.10;5.35;;;3.20;99.90;;;;;;5049230;28;20021;-65